sensor_id;sensor_type;location;lat;lon;timestamp;P1;durP1;ratioP1;P2;durP2;ratioP2
8893;SDS011;4483;48.622;9.230;2022-11-20T00:00:37;2.00;;;1.90;;
8893;SDS011;4483;48.622;9.230;2022-11-20T00:03:04;2.83;;;1.90;;
8893;SDS011;4483;48.622;9.230;2022-11-20T00:05:31;2.20;;;2.10;;
8893;SDS011;4483;48.622;9.230;2022-11-20T00:07:58;1.80;;;1.60;;
8893;SDS011;4483;48.622;9.230;2022-11-20T00:10:25;3.83;;;1.60;;
8893;SDS011;4483;48.622;9.230;2022-11-20T00:12:53;2.00;;;1.90;;
8893;SDS011;4483;48.622;9.230;2022-11-20T00:15:19;1.93;;;1.77;;
8893;SDS011;4483;48.622;9.230;2022-11-20T00:17:46;5.70;;;1.97;;
8893;SDS011;4483;48.622;9.230;2022-11-20T00:20:13;2.07;;;1.80;;
8893;SDS011;4483;48.622;9.230;2022-11-20T00:22:40;1.70;;;1.60;;
8893;SDS011;4483;48.622;9.230;2022-11-20T00:25:07;1.83;;;1.73;;
8893;SDS011;4483;48.622;9.230;2022-11-20T00:27:33;2.10;;;1.70;;
8893;SDS011;4483;48.622;9.230;2022-11-20T00:30:02;2.17;;;1.80;;
8893;SDS011;4483;48.622;9.230;2022-11-20T00:32:29;1.63;;;1.53;;
8893;SDS011;4483;48.622;9.230;2022-11-20T00:34:56;2.00;;;1.70;;
8893;SDS011;4483;48.622;9.230;2022-11-20T00:37:22;1.73;;;1.63;;
8893;SDS011;4483;48.622;9.230;2022-11-20T00:39:49;1.90;;;1.60;;
8893;SDS011;4483;48.622;9.230;2022-11-20T00:42:16;2.73;;;1.80;;
8893;SDS011;4483;48.622;9.230;2022-11-20T00:44:42;2.57;;;1.77;;
8893;SDS011;4483;48.622;9.230;2022-11-20T00:47:10;1.90;;;1.80;;
8893;SDS011;4483;48.622;9.230;2022-11-20T00:49:37;1.77;;;1.60;;
8893;SDS011;4483;48.622;9.230;2022-11-20T00:52:04;3.03;;;1.70;;
8893;SDS011;4483;48.622;9.230;2022-11-20T00:54:30;3.43;;;2.07;;
8893;SDS011;4483;48.622;9.230;2022-11-20T00:56:57;3.93;;;1.70;;
8893;SDS011;4483;48.622;9.230;2022-11-20T00:59:24;1.87;;;1.57;;
8893;SDS011;4483;48.622;9.230;2022-11-20T01:01:50;1.70;;;1.60;;
8893;SDS011;4483;48.622;9.230;2022-11-20T01:04:18;1.57;;;1.53;;
8893;SDS011;4483;48.622;9.230;2022-11-20T01:06:45;1.73;;;1.63;;
8893;SDS011;4483;48.622;9.230;2022-11-20T01:09:12;2.07;;;1.70;;
8893;SDS011;4483;48.622;9.230;2022-11-20T01:11:40;1.80;;;1.70;;
8893;SDS011;4483;48.622;9.230;2022-11-20T01:14:10;1.93;;;1.70;;
8893;SDS011;4483;48.622;9.230;2022-11-20T01:16:39;3.27;;;1.80;;
8893;SDS011;4483;48.622;9.230;2022-11-20T01:19:07;1.20;;;1.20;;
8893;SDS011;4483;48.622;9.230;2022-11-20T01:21:39;1.73;;;1.63;;
8893;SDS011;4483;48.622;9.230;2022-11-20T01:24:07;3.63;;;1.80;;
8893;SDS011;4483;48.622;9.230;2022-11-20T01:26:37;1.60;;;1.50;;
8893;SDS011;4483;48.622;9.230;2022-11-20T01:29:05;2.63;;;1.63;;
8893;SDS011;4483;48.622;9.230;2022-11-20T01:31:33;1.60;;;1.50;;
8893;SDS011;4483;48.622;9.230;2022-11-20T01:34:01;1.90;;;1.80;;
8893;SDS011;4483;48.622;9.230;2022-11-20T01:36:30;1.70;;;1.60;;
8893;SDS011;4483;48.622;9.230;2022-11-20T01:39:00;1.80;;;1.70;;
8893;SDS011;4483;48.622;9.230;2022-11-20T01:41:29;2.83;;;1.87;;
8893;SDS011;4483;48.622;9.230;2022-11-20T01:44:16;2.13;;;2.00;;
8893;SDS011;4483;48.622;9.230;2022-11-20T01:46:47;1.93;;;1.83;;
8893;SDS011;4483;48.622;9.230;2022-11-20T01:49:23;2.13;;;1.97;;
8893;SDS011;4483;48.622;9.230;2022-11-20T01:51:55;2.67;;;1.80;;
8893;SDS011;4483;48.622;9.230;2022-11-20T01:54:28;4.40;;;1.90;;
8893;SDS011;4483;48.622;9.230;2022-11-20T01:57:00;1.83;;;1.60;;
8893;SDS011;4483;48.622;9.230;2022-11-20T01:59:29;2.87;;;2.00;;
8893;SDS011;4483;48.622;9.230;2022-11-20T02:01:56;2.50;;;2.30;;
8893;SDS011;4483;48.622;9.230;2022-11-20T02:04:23;2.13;;;2.03;;
8893;SDS011;4483;48.622;9.230;2022-11-20T02:06:51;2.60;;;2.20;;
8893;SDS011;4483;48.622;9.230;2022-11-20T02:09:24;2.57;;;1.90;;
8893;SDS011;4483;48.622;9.230;2022-11-20T02:11:52;2.10;;;2.00;;
8893;SDS011;4483;48.622;9.230;2022-11-20T02:14:19;2.10;;;2.00;;
8893;SDS011;4483;48.622;9.230;2022-11-20T02:16:47;2.20;;;2.00;;
8893;SDS011;4483;48.622;9.230;2022-11-20T02:19:16;2.07;;;1.93;;
8893;SDS011;4483;48.622;9.230;2022-11-20T02:21:50;2.90;;;1.70;;
8893;SDS011;4483;48.622;9.230;2022-11-20T02:24:27;2.00;;;1.90;;
8893;SDS011;4483;48.622;9.230;2022-11-20T02:26:56;3.80;;;1.97;;
8893;SDS011;4483;48.622;9.230;2022-11-20T02:29:26;3.73;;;2.00;;
8893;SDS011;4483;48.622;9.230;2022-11-20T02:31:58;2.23;;;2.00;;
8893;SDS011;4483;48.622;9.230;2022-11-20T02:34:28;2.70;;;2.40;;
8893;SDS011;4483;48.622;9.230;2022-11-20T02:36:54;2.93;;;2.20;;
8893;SDS011;4483;48.622;9.230;2022-11-20T02:39:24;2.40;;;2.30;;
8893;SDS011;4483;48.622;9.230;2022-11-20T02:41:55;2.43;;;2.23;;
8893;SDS011;4483;48.622;9.230;2022-11-20T02:44:22;2.33;;;2.10;;
8893;SDS011;4483;48.622;9.230;2022-11-20T02:46:49;2.50;;;2.33;;
8893;SDS011;4483;48.622;9.230;2022-11-20T02:49:15;3.47;;;2.10;;
8893;SDS011;4483;48.622;9.230;2022-11-20T02:51:42;2.20;;;2.00;;
8893;SDS011;4483;48.622;9.230;2022-11-20T02:54:09;3.33;;;1.70;;
8893;SDS011;4483;48.622;9.230;2022-11-20T02:56:37;2.60;;;1.83;;
8893;SDS011;4483;48.622;9.230;2022-11-20T02:59:05;2.50;;;1.90;;
8893;SDS011;4483;48.622;9.230;2022-11-20T03:01:32;2.03;;;1.90;;
8893;SDS011;4483;48.622;9.230;2022-11-20T03:03:59;2.33;;;2.10;;
8893;SDS011;4483;48.622;9.230;2022-11-20T03:06:25;2.27;;;1.80;;
8893;SDS011;4483;48.622;9.230;2022-11-20T03:08:52;2.30;;;2.00;;
8893;SDS011;4483;48.622;9.230;2022-11-20T03:11:19;1.97;;;1.87;;
8893;SDS011;4483;48.622;9.230;2022-11-20T03:13:45;2.77;;;2.20;;
8893;SDS011;4483;48.622;9.230;2022-11-20T03:16:15;1.97;;;1.80;;
8893;SDS011;4483;48.622;9.230;2022-11-20T03:18:43;4.03;;;2.47;;
8893;SDS011;4483;48.622;9.230;2022-11-20T03:21:11;2.77;;;2.40;;
8893;SDS011;4483;48.622;9.230;2022-11-20T03:23:39;2.43;;;2.23;;
8893;SDS011;4483;48.622;9.230;2022-11-20T03:26:07;1.93;;;1.83;;
8893;SDS011;4483;48.622;9.230;2022-11-20T03:28:37;4.37;;;2.10;;
8893;SDS011;4483;48.622;9.230;2022-11-20T03:31:05;2.60;;;2.40;;
8893;SDS011;4483;48.622;9.230;2022-11-20T03:33:34;2.60;;;1.90;;
8893;SDS011;4483;48.622;9.230;2022-11-20T03:36:01;2.97;;;2.20;;
8893;SDS011;4483;48.622;9.230;2022-11-20T03:38:29;1.93;;;1.83;;
8893;SDS011;4483;48.622;9.230;2022-11-20T03:40:58;2.67;;;2.10;;
8893;SDS011;4483;48.622;9.230;2022-11-20T03:43:26;2.43;;;2.00;;
8893;SDS011;4483;48.622;9.230;2022-11-20T03:45:52;5.03;;;2.00;;
8893;SDS011;4483;48.622;9.230;2022-11-20T03:48:19;1.80;;;1.70;;
8893;SDS011;4483;48.622;9.230;2022-11-20T03:50:47;3.83;;;1.83;;
8893;SDS011;4483;48.622;9.230;2022-11-20T03:53:14;4.13;;;1.90;;
8893;SDS011;4483;48.622;9.230;2022-11-20T03:55:40;2.00;;;1.73;;
8893;SDS011;4483;48.622;9.230;2022-11-20T03:58:07;1.83;;;1.73;;
8893;SDS011;4483;48.622;9.230;2022-11-20T04:00:34;1.73;;;1.63;;
8893;SDS011;4483;48.622;9.230;2022-11-20T04:03:01;1.77;;;1.63;;
8893;SDS011;4483;48.622;9.230;2022-11-20T04:05:28;2.13;;;1.77;;
8893;SDS011;4483;48.622;9.230;2022-11-20T04:07:56;2.13;;;1.70;;
8893;SDS011;4483;48.622;9.230;2022-11-20T04:10:23;2.63;;;1.80;;
8893;SDS011;4483;48.622;9.230;2022-11-20T04:12:50;1.70;;;1.60;;
8893;SDS011;4483;48.622;9.230;2022-11-20T04:15:17;5.93;;;2.23;;
8893;SDS011;4483;48.622;9.230;2022-11-20T04:17:43;2.50;;;2.30;;
8893;SDS011;4483;48.622;9.230;2022-11-20T04:20:10;2.87;;;2.57;;
8893;SDS011;4483;48.622;9.230;2022-11-20T04:22:37;2.57;;;2.30;;
8893;SDS011;4483;48.622;9.230;2022-11-20T04:25:06;3.10;;;2.20;;
8893;SDS011;4483;48.622;9.230;2022-11-20T04:27:33;2.40;;;2.20;;
8893;SDS011;4483;48.622;9.230;2022-11-20T04:29:59;2.50;;;2.20;;
8893;SDS011;4483;48.622;9.230;2022-11-20T04:32:26;3.30;;;2.27;;
8893;SDS011;4483;48.622;9.230;2022-11-20T04:34:53;7.30;;;2.13;;
8893;SDS011;4483;48.622;9.230;2022-11-20T04:37:20;2.17;;;2.07;;
8893;SDS011;4483;48.622;9.230;2022-11-20T04:39:46;2.40;;;2.10;;
8893;SDS011;4483;48.622;9.230;2022-11-20T04:42:14;1.80;;;1.70;;
8893;SDS011;4483;48.622;9.230;2022-11-20T04:44:56;2.13;;;1.97;;
8893;SDS011;4483;48.622;9.230;2022-11-20T04:47:23;2.03;;;1.93;;
8893;SDS011;4483;48.622;9.230;2022-11-20T04:49:49;4.57;;;2.20;;
8893;SDS011;4483;48.622;9.230;2022-11-20T04:52:16;1.97;;;1.87;;
8893;SDS011;4483;48.622;9.230;2022-11-20T04:54:43;3.23;;;1.70;;
8893;SDS011;4483;48.622;9.230;2022-11-20T04:57:09;1.87;;;1.60;;
8893;SDS011;4483;48.622;9.230;2022-11-20T04:59:37;1.80;;;1.70;;
8893;SDS011;4483;48.622;9.230;2022-11-20T05:02:04;2.10;;;1.80;;
8893;SDS011;4483;48.622;9.230;2022-11-20T05:04:31;1.67;;;1.57;;
8893;SDS011;4483;48.622;9.230;2022-11-20T05:06:57;2.77;;;1.70;;
8893;SDS011;4483;48.622;9.230;2022-11-20T05:09:24;1.47;;;1.37;;
8893;SDS011;4483;48.622;9.230;2022-11-20T05:11:50;3.23;;;1.60;;
8893;SDS011;4483;48.622;9.230;2022-11-20T05:14:17;2.50;;;1.43;;
8893;SDS011;4483;48.622;9.230;2022-11-20T05:16:45;1.70;;;1.60;;
8893;SDS011;4483;48.622;9.230;2022-11-20T05:19:12;1.80;;;1.70;;
8893;SDS011;4483;48.622;9.230;2022-11-20T05:21:38;5.73;;;2.00;;
8893;SDS011;4483;48.622;9.230;2022-11-20T05:24:05;4.33;;;1.40;;
8893;SDS011;4483;48.622;9.230;2022-11-20T05:26:32;1.70;;;1.60;;
8893;SDS011;4483;48.622;9.230;2022-11-20T05:28:58;3.47;;;1.90;;
8893;SDS011;4483;48.622;9.230;2022-11-20T05:31:25;1.63;;;1.50;;
8893;SDS011;4483;48.622;9.230;2022-11-20T05:33:53;2.87;;;1.60;;
8893;SDS011;4483;48.622;9.230;2022-11-20T05:36:21;1.67;;;1.43;;
8893;SDS011;4483;48.622;9.230;2022-11-20T05:38:48;3.47;;;1.60;;
8893;SDS011;4483;48.622;9.230;2022-11-20T05:41:16;2.07;;;1.63;;
8893;SDS011;4483;48.622;9.230;2022-11-20T05:43:45;1.60;;;1.50;;
8893;SDS011;4483;48.622;9.230;2022-11-20T05:46:13;1.30;;;1.20;;
8893;SDS011;4483;48.622;9.230;2022-11-20T05:48:41;3.47;;;2.97;;
8893;SDS011;4483;48.622;9.230;2022-11-20T05:51:11;1.70;;;1.60;;
8893;SDS011;4483;48.622;9.230;2022-11-20T05:53:39;2.20;;;2.00;;
8893;SDS011;4483;48.622;9.230;2022-11-20T05:56:06;1.83;;;1.67;;
8893;SDS011;4483;48.622;9.230;2022-11-20T05:58:36;2.07;;;1.57;;
8893;SDS011;4483;48.622;9.230;2022-11-20T06:01:04;1.70;;;1.60;;
8893;SDS011;4483;48.622;9.230;2022-11-20T06:03:32;1.70;;;1.60;;
8893;SDS011;4483;48.622;9.230;2022-11-20T06:05:59;1.63;;;1.53;;
8893;SDS011;4483;48.622;9.230;2022-11-20T06:08:28;3.17;;;1.80;;
8893;SDS011;4483;48.622;9.230;2022-11-20T06:10:55;1.50;;;1.50;;
8893;SDS011;4483;48.622;9.230;2022-11-20T06:13:22;1.60;;;1.50;;
8893;SDS011;4483;48.622;9.230;2022-11-20T06:15:49;1.83;;;1.53;;
8893;SDS011;4483;48.622;9.230;2022-11-20T06:18:15;2.03;;;1.77;;
8893;SDS011;4483;48.622;9.230;2022-11-20T06:20:42;1.93;;;1.83;;
8893;SDS011;4483;48.622;9.230;2022-11-20T06:23:09;7.03;;;1.63;;
8893;SDS011;4483;48.622;9.230;2022-11-20T06:25:38;2.33;;;2.13;;
8893;SDS011;4483;48.622;9.230;2022-11-20T06:28:05;1.53;;;1.43;;
8893;SDS011;4483;48.622;9.230;2022-11-20T06:30:32;4.20;;;2.03;;
8893;SDS011;4483;48.622;9.230;2022-11-20T06:32:59;1.70;;;1.60;;
8893;SDS011;4483;48.622;9.230;2022-11-20T06:35:25;1.40;;;1.40;;
8893;SDS011;4483;48.622;9.230;2022-11-20T06:37:52;1.80;;;1.30;;
8893;SDS011;4483;48.622;9.230;2022-11-20T06:40:19;2.00;;;1.70;;
8893;SDS011;4483;48.622;9.230;2022-11-20T06:42:47;2.40;;;1.37;;
8893;SDS011;4483;48.622;9.230;2022-11-20T06:45:13;1.77;;;1.43;;
8893;SDS011;4483;48.622;9.230;2022-11-20T06:47:40;1.50;;;1.40;;
8893;SDS011;4483;48.622;9.230;2022-11-20T06:50:07;1.50;;;1.40;;
8893;SDS011;4483;48.622;9.230;2022-11-20T06:52:34;1.80;;;1.20;;
8893;SDS011;4483;48.622;9.230;2022-11-20T06:55:00;2.77;;;1.57;;
8893;SDS011;4483;48.622;9.230;2022-11-20T06:57:27;3.63;;;1.50;;
8893;SDS011;4483;48.622;9.230;2022-11-20T06:59:55;1.67;;;1.50;;
8893;SDS011;4483;48.622;9.230;2022-11-20T07:02:22;1.80;;;1.67;;
8893;SDS011;4483;48.622;9.230;2022-11-20T07:04:48;1.50;;;1.40;;
8893;SDS011;4483;48.622;9.230;2022-11-20T07:07:15;1.80;;;1.70;;
8893;SDS011;4483;48.622;9.230;2022-11-20T07:09:42;1.87;;;1.70;;
8893;SDS011;4483;48.622;9.230;2022-11-20T07:12:08;2.37;;;1.40;;
8893;SDS011;4483;48.622;9.230;2022-11-20T07:14:35;1.60;;;1.50;;
8893;SDS011;4483;48.622;9.230;2022-11-20T07:17:03;1.30;;;1.30;;
8893;SDS011;4483;48.622;9.230;2022-11-20T07:19:30;1.60;;;1.50;;
8893;SDS011;4483;48.622;9.230;2022-11-20T07:21:56;1.80;;;1.37;;
8893;SDS011;4483;48.622;9.230;2022-11-20T07:24:23;1.47;;;1.40;;
8893;SDS011;4483;48.622;9.230;2022-11-20T07:26:50;1.97;;;1.40;;
8893;SDS011;4483;48.622;9.230;2022-11-20T07:29:16;1.50;;;1.40;;
8893;SDS011;4483;48.622;9.230;2022-11-20T07:31:43;1.40;;;1.30;;
8893;SDS011;4483;48.622;9.230;2022-11-20T07:34:11;3.50;;;1.50;;
8893;SDS011;4483;48.622;9.230;2022-11-20T07:36:37;1.40;;;1.30;;
8893;SDS011;4483;48.622;9.230;2022-11-20T07:39:05;1.83;;;1.33;;
8893;SDS011;4483;48.622;9.230;2022-11-20T07:41:32;1.50;;;1.40;;
8893;SDS011;4483;48.622;9.230;2022-11-20T07:43:59;1.17;;;1.10;;
8893;SDS011;4483;48.622;9.230;2022-11-20T07:46:26;1.60;;;1.30;;
8893;SDS011;4483;48.622;9.230;2022-11-20T07:48:52;2.17;;;1.20;;
8893;SDS011;4483;48.622;9.230;2022-11-20T07:51:20;1.13;;;1.13;;
8893;SDS011;4483;48.622;9.230;2022-11-20T07:53:47;1.23;;;1.20;;
8893;SDS011;4483;48.622;9.230;2022-11-20T07:56:16;1.00;;;1.00;;
8893;SDS011;4483;48.622;9.230;2022-11-20T07:58:43;2.80;;;1.20;;
8893;SDS011;4483;48.622;9.230;2022-11-20T08:01:10;1.40;;;1.30;;
8893;SDS011;4483;48.622;9.230;2022-11-20T08:03:36;1.30;;;1.20;;
8893;SDS011;4483;48.622;9.230;2022-11-20T08:06:03;1.30;;;1.30;;
8893;SDS011;4483;48.622;9.230;2022-11-20T08:08:32;1.23;;;1.20;;
8893;SDS011;4483;48.622;9.230;2022-11-20T08:10:58;1.23;;;1.23;;
8893;SDS011;4483;48.622;9.230;2022-11-20T08:13:46;1.63;;;1.20;;
8893;SDS011;4483;48.622;9.230;2022-11-20T08:16:30;2.10;;;1.23;;
8893;SDS011;4483;48.622;9.230;2022-11-20T08:18:57;1.37;;;1.27;;
8893;SDS011;4483;48.622;9.230;2022-11-20T08:21:23;1.50;;;1.20;;
8893;SDS011;4483;48.622;9.230;2022-11-20T08:23:51;1.27;;;1.17;;
8893;SDS011;4483;48.622;9.230;2022-11-20T08:26:18;1.10;;;1.10;;
8893;SDS011;4483;48.622;9.230;2022-11-20T08:28:45;1.20;;;1.20;;
8893;SDS011;4483;48.622;9.230;2022-11-20T08:31:11;0.90;;;0.90;;
8893;SDS011;4483;48.622;9.230;2022-11-20T08:33:38;1.00;;;1.00;;
8893;SDS011;4483;48.622;9.230;2022-11-20T08:36:05;1.00;;;1.00;;
8893;SDS011;4483;48.622;9.230;2022-11-20T08:38:32;1.00;;;1.00;;
8893;SDS011;4483;48.622;9.230;2022-11-20T08:41:01;6.83;;;1.40;;
8893;SDS011;4483;48.622;9.230;2022-11-20T08:43:47;1.03;;;1.03;;
8893;SDS011;4483;48.622;9.230;2022-11-20T08:46:13;1.30;;;1.20;;
8893;SDS011;4483;48.622;9.230;2022-11-20T08:48:40;1.00;;;1.00;;
8893;SDS011;4483;48.622;9.230;2022-11-20T08:51:07;1.10;;;1.10;;
8893;SDS011;4483;48.622;9.230;2022-11-20T08:53:33;1.60;;;1.20;;
8893;SDS011;4483;48.622;9.230;2022-11-20T08:56:01;1.33;;;0.83;;
8893;SDS011;4483;48.622;9.230;2022-11-20T08:58:28;2.30;;;1.10;;
8893;SDS011;4483;48.622;9.230;2022-11-20T09:00:55;1.00;;;1.00;;
8893;SDS011;4483;48.622;9.230;2022-11-20T09:03:21;1.00;;;1.00;;
8893;SDS011;4483;48.622;9.230;2022-11-20T09:05:48;0.80;;;0.80;;
8893;SDS011;4483;48.622;9.230;2022-11-20T09:08:15;1.00;;;1.00;;
8893;SDS011;4483;48.622;9.230;2022-11-20T09:10:42;0.80;;;0.80;;
8893;SDS011;4483;48.622;9.230;2022-11-20T09:13:10;1.10;;;1.10;;
8893;SDS011;4483;48.622;9.230;2022-11-20T09:15:36;0.90;;;0.90;;
8893;SDS011;4483;48.622;9.230;2022-11-20T09:18:03;1.03;;;1.03;;
8893;SDS011;4483;48.622;9.230;2022-11-20T09:20:30;1.10;;;1.10;;
8893;SDS011;4483;48.622;9.230;2022-11-20T09:22:57;0.83;;;0.83;;
8893;SDS011;4483;48.622;9.230;2022-11-20T09:25:24;0.93;;;0.93;;
8893;SDS011;4483;48.622;9.230;2022-11-20T09:27:54;0.90;;;0.90;;
8893;SDS011;4483;48.622;9.230;2022-11-20T09:30:23;0.70;;;0.70;;
8893;SDS011;4483;48.622;9.230;2022-11-20T09:32:50;0.97;;;0.97;;
8893;SDS011;4483;48.622;9.230;2022-11-20T09:35:17;0.87;;;0.87;;
8893;SDS011;4483;48.622;9.230;2022-11-20T09:37:43;1.00;;;1.00;;
8893;SDS011;4483;48.622;9.230;2022-11-20T09:40:13;1.10;;;1.00;;
8893;SDS011;4483;48.622;9.230;2022-11-20T09:42:47;0.83;;;0.83;;
8893;SDS011;4483;48.622;9.230;2022-11-20T09:45:23;1.00;;;1.00;;
8893;SDS011;4483;48.622;9.230;2022-11-20T09:47:59;0.83;;;0.83;;
8893;SDS011;4483;48.622;9.230;2022-11-20T09:50:39;0.83;;;0.83;;
8893;SDS011;4483;48.622;9.230;2022-11-20T09:53:16;0.80;;;0.80;;
8893;SDS011;4483;48.622;9.230;2022-11-20T09:55:48;0.70;;;0.70;;
8893;SDS011;4483;48.622;9.230;2022-11-20T09:58:16;0.70;;;0.70;;
8893;SDS011;4483;48.622;9.230;2022-11-20T10:00:53;0.70;;;0.70;;
8893;SDS011;4483;48.622;9.230;2022-11-20T10:03:26;0.67;;;0.67;;
8893;SDS011;4483;48.622;9.230;2022-11-20T10:06:03;0.70;;;0.70;;
8893;SDS011;4483;48.622;9.230;2022-11-20T10:08:35;0.60;;;0.60;;
8893;SDS011;4483;48.622;9.230;2022-11-20T10:11:09;1.47;;;0.70;;
8893;SDS011;4483;48.622;9.230;2022-11-20T10:13:44;0.70;;;0.70;;
8893;SDS011;4483;48.622;9.230;2022-11-20T10:16:21;0.60;;;0.60;;
8893;SDS011;4483;48.622;9.230;2022-11-20T10:19:00;0.63;;;0.63;;
8893;SDS011;4483;48.622;9.230;2022-11-20T10:21:41;0.57;;;0.57;;
8893;SDS011;4483;48.622;9.230;2022-11-20T10:24:24;0.50;;;0.50;;
8893;SDS011;4483;48.622;9.230;2022-11-20T10:27:03;0.50;;;0.50;;
8893;SDS011;4483;48.622;9.230;2022-11-20T10:29:46;0.57;;;0.57;;
8893;SDS011;4483;48.622;9.230;2022-11-20T10:32:23;2.90;;;2.13;;
8893;SDS011;4483;48.622;9.230;2022-11-20T10:34:58;1.03;;;1.00;;
8893;SDS011;4483;48.622;9.230;2022-11-20T10:37:30;2.37;;;0.80;;
8893;SDS011;4483;48.622;9.230;2022-11-20T10:40:17;0.77;;;0.77;;
8893;SDS011;4483;48.622;9.230;2022-11-20T10:42:48;0.70;;;0.70;;
8893;SDS011;4483;48.622;9.230;2022-11-20T10:45:22;0.90;;;0.90;;
8893;SDS011;4483;48.622;9.230;2022-11-20T10:48:09;0.70;;;0.70;;
8893;SDS011;4483;48.622;9.230;2022-11-20T10:50:43;1.20;;;0.60;;
8893;SDS011;4483;48.622;9.230;2022-11-20T10:53:25;1.07;;;0.70;;
8893;SDS011;4483;48.622;9.230;2022-11-20T10:56:11;0.60;;;0.60;;
8893;SDS011;4483;48.622;9.230;2022-11-20T10:58:46;0.60;;;0.50;;
8893;SDS011;4483;48.622;9.230;2022-11-20T11:01:20;0.60;;;0.60;;
8893;SDS011;4483;48.622;9.230;2022-11-20T11:03:49;0.60;;;0.60;;
8893;SDS011;4483;48.622;9.230;2022-11-20T11:06:20;0.63;;;0.63;;
8893;SDS011;4483;48.622;9.230;2022-11-20T11:08:51;0.97;;;0.97;;
8893;SDS011;4483;48.622;9.230;2022-11-20T11:11:21;0.73;;;0.67;;
8893;SDS011;4483;48.622;9.230;2022-11-20T11:13:49;0.60;;;0.60;;
8893;SDS011;4483;48.622;9.230;2022-11-20T11:16:20;0.50;;;0.50;;
8893;SDS011;4483;48.622;9.230;2022-11-20T11:18:48;2.07;;;0.90;;
8893;SDS011;4483;48.622;9.230;2022-11-20T11:21:21;0.97;;;0.70;;
8893;SDS011;4483;48.622;9.230;2022-11-20T11:23:56;0.80;;;0.67;;
8893;SDS011;4483;48.622;9.230;2022-11-20T11:26:25;0.70;;;0.70;;
8893;SDS011;4483;48.622;9.230;2022-11-20T11:28:52;0.60;;;0.60;;
8893;SDS011;4483;48.622;9.230;2022-11-20T11:31:24;0.50;;;0.50;;
8893;SDS011;4483;48.622;9.230;2022-11-20T11:34:02;0.67;;;0.67;;
8893;SDS011;4483;48.622;9.230;2022-11-20T11:36:30;0.70;;;0.70;;
8893;SDS011;4483;48.622;9.230;2022-11-20T11:38:59;0.90;;;0.90;;
8893;SDS011;4483;48.622;9.230;2022-11-20T11:41:28;0.70;;;0.70;;
8893;SDS011;4483;48.622;9.230;2022-11-20T11:44:00;1.33;;;0.90;;
8893;SDS011;4483;48.622;9.230;2022-11-20T11:46:56;0.93;;;0.93;;
8893;SDS011;4483;48.622;9.230;2022-11-20T11:49:25;0.80;;;0.80;;
8893;SDS011;4483;48.622;9.230;2022-11-20T11:52:00;0.70;;;0.70;;
8893;SDS011;4483;48.622;9.230;2022-11-20T11:54:34;0.80;;;0.80;;
8893;SDS011;4483;48.622;9.230;2022-11-20T11:57:05;1.20;;;0.90;;
8893;SDS011;4483;48.622;9.230;2022-11-20T11:59:41;2.87;;;0.90;;
8893;SDS011;4483;48.622;9.230;2022-11-20T12:02:22;0.77;;;0.77;;
8893;SDS011;4483;48.622;9.230;2022-11-20T12:04:58;1.70;;;0.90;;
8893;SDS011;4483;48.622;9.230;2022-11-20T12:07:32;0.60;;;0.60;;
8893;SDS011;4483;48.622;9.230;2022-11-20T12:10:05;0.73;;;0.73;;
8893;SDS011;4483;48.622;9.230;2022-11-20T12:12:39;0.67;;;0.60;;
8893;SDS011;4483;48.622;9.230;2022-11-20T12:15:11;0.63;;;0.63;;
8893;SDS011;4483;48.622;9.230;2022-11-20T12:17:39;2.77;;;0.77;;
8893;SDS011;4483;48.622;9.230;2022-11-20T12:20:10;0.67;;;0.60;;
8893;SDS011;4483;48.622;9.230;2022-11-20T12:22:40;1.23;;;0.80;;
8893;SDS011;4483;48.622;9.230;2022-11-20T12:25:17;1.07;;;0.97;;
8893;SDS011;4483;48.622;9.230;2022-11-20T12:27:57;2.53;;;0.80;;
8893;SDS011;4483;48.622;9.230;2022-11-20T12:30:38;3.30;;;1.00;;
8893;SDS011;4483;48.622;9.230;2022-11-20T12:33:20;0.83;;;0.70;;
8893;SDS011;4483;48.622;9.230;2022-11-20T12:36:10;1.43;;;0.97;;
8893;SDS011;4483;48.622;9.230;2022-11-20T12:38:57;0.73;;;0.73;;
8893;SDS011;4483;48.622;9.230;2022-11-20T12:41:41;0.83;;;0.73;;
8893;SDS011;4483;48.622;9.230;2022-11-20T12:44:35;0.97;;;0.70;;
8893;SDS011;4483;48.622;9.230;2022-11-20T12:47:42;0.77;;;0.70;;
8893;SDS011;4483;48.622;9.230;2022-11-20T12:50:31;0.77;;;0.60;;
8893;SDS011;4483;48.622;9.230;2022-11-20T12:53:10;0.60;;;0.60;;
8893;SDS011;4483;48.622;9.230;2022-11-20T12:55:50;0.77;;;0.63;;
8893;SDS011;4483;48.622;9.230;2022-11-20T12:58:27;1.20;;;0.83;;
8893;SDS011;4483;48.622;9.230;2022-11-20T13:01:09;0.97;;;0.70;;
8893;SDS011;4483;48.622;9.230;2022-11-20T13:04:07;0.60;;;0.60;;
8893;SDS011;4483;48.622;9.230;2022-11-20T13:06:40;2.03;;;0.80;;
8893;SDS011;4483;48.622;9.230;2022-11-20T13:09:09;0.57;;;0.57;;
8893;SDS011;4483;48.622;9.230;2022-11-20T13:11:40;0.83;;;0.60;;
8893;SDS011;4483;48.622;9.230;2022-11-20T13:14:13;1.00;;;0.87;;
8893;SDS011;4483;48.622;9.230;2022-11-20T13:16:51;0.70;;;0.70;;
8893;SDS011;4483;48.622;9.230;2022-11-20T13:19:24;1.70;;;0.67;;
8893;SDS011;4483;48.622;9.230;2022-11-20T13:21:52;1.20;;;0.70;;
8893;SDS011;4483;48.622;9.230;2022-11-20T13:24:24;0.60;;;0.60;;
8893;SDS011;4483;48.622;9.230;2022-11-20T13:27:16;1.20;;;1.10;;
8893;SDS011;4483;48.622;9.230;2022-11-20T13:29:45;0.60;;;0.60;;
8893;SDS011;4483;48.622;9.230;2022-11-20T13:32:24;1.17;;;0.70;;
8893;SDS011;4483;48.622;9.230;2022-11-20T13:34:51;0.80;;;0.77;;
8893;SDS011;4483;48.622;9.230;2022-11-20T13:37:26;1.00;;;0.60;;
8893;SDS011;4483;48.622;9.230;2022-11-20T13:42:53;0.80;;;0.80;;
8893;SDS011;4483;48.622;9.230;2022-11-20T13:45:23;1.73;;;1.00;;
8893;SDS011;4483;48.622;9.230;2022-11-20T13:47:51;0.80;;;0.80;;
8893;SDS011;4483;48.622;9.230;2022-11-20T13:50:19;0.93;;;0.70;;
8893;SDS011;4483;48.622;9.230;2022-11-20T13:52:55;2.10;;;0.90;;
8893;SDS011;4483;48.622;9.230;2022-11-20T13:55:32;0.70;;;0.70;;
8893;SDS011;4483;48.622;9.230;2022-11-20T13:58:11;0.70;;;0.70;;
8893;SDS011;4483;48.622;9.230;2022-11-20T14:00:55;1.80;;;0.90;;
8893;SDS011;4483;48.622;9.230;2022-11-20T14:03:24;2.30;;;0.80;;
8893;SDS011;4483;48.622;9.230;2022-11-20T14:05:55;0.80;;;0.80;;
8893;SDS011;4483;48.622;9.230;2022-11-20T14:08:28;0.60;;;0.60;;
8893;SDS011;4483;48.622;9.230;2022-11-20T14:11:04;0.60;;;0.60;;
8893;SDS011;4483;48.622;9.230;2022-11-20T14:13:32;0.90;;;0.90;;
8893;SDS011;4483;48.622;9.230;2022-11-20T14:15:59;0.70;;;0.70;;
8893;SDS011;4483;48.622;9.230;2022-11-20T14:18:26;1.23;;;0.83;;
8893;SDS011;4483;48.622;9.230;2022-11-20T14:20:53;1.17;;;0.87;;
8893;SDS011;4483;48.622;9.230;2022-11-20T14:23:23;0.77;;;0.77;;
8893;SDS011;4483;48.622;9.230;2022-11-20T14:25:51;2.27;;;0.90;;
8893;SDS011;4483;48.622;9.230;2022-11-20T14:28:21;0.70;;;0.70;;
8893;SDS011;4483;48.622;9.230;2022-11-20T14:30:52;0.60;;;0.60;;
8893;SDS011;4483;48.622;9.230;2022-11-20T14:33:20;2.20;;;0.80;;
8893;SDS011;4483;48.622;9.230;2022-11-20T14:35:50;1.77;;;0.90;;
8893;SDS011;4483;48.622;9.230;2022-11-20T14:38:19;0.80;;;0.80;;
8893;SDS011;4483;48.622;9.230;2022-11-20T14:40:50;2.67;;;0.87;;
8893;SDS011;4483;48.622;9.230;2022-11-20T14:43:18;2.00;;;0.90;;
8893;SDS011;4483;48.622;9.230;2022-11-20T14:45:48;1.10;;;1.10;;
8893;SDS011;4483;48.622;9.230;2022-11-20T14:48:22;0.77;;;0.77;;
8893;SDS011;4483;48.622;9.230;2022-11-20T14:50:54;0.70;;;0.70;;
8893;SDS011;4483;48.622;9.230;2022-11-20T14:53:22;0.63;;;0.60;;
8893;SDS011;4483;48.622;9.230;2022-11-20T14:55:54;1.20;;;0.90;;
8893;SDS011;4483;48.622;9.230;2022-11-20T14:58:24;1.03;;;0.73;;
8893;SDS011;4483;48.622;9.230;2022-11-20T15:00:55;2.33;;;0.60;;
8893;SDS011;4483;48.622;9.230;2022-11-20T15:03:23;1.50;;;0.90;;
8893;SDS011;4483;48.622;9.230;2022-11-20T15:05:57;2.03;;;1.10;;
8893;SDS011;4483;48.622;9.230;2022-11-20T15:08:24;0.70;;;0.70;;
8893;SDS011;4483;48.622;9.230;2022-11-20T15:10:51;1.47;;;0.80;;
8893;SDS011;4483;48.622;9.230;2022-11-20T15:13:21;0.70;;;0.70;;
8893;SDS011;4483;48.622;9.230;2022-11-20T15:15:53;1.43;;;1.00;;
8893;SDS011;4483;48.622;9.230;2022-11-20T15:18:21;1.33;;;0.70;;
8893;SDS011;4483;48.622;9.230;2022-11-20T15:20:53;0.80;;;0.80;;
8893;SDS011;4483;48.622;9.230;2022-11-20T15:23:21;0.80;;;0.80;;
8893;SDS011;4483;48.622;9.230;2022-11-20T15:25:48;0.73;;;0.70;;
8893;SDS011;4483;48.622;9.230;2022-11-20T15:28:16;0.80;;;0.80;;
8893;SDS011;4483;48.622;9.230;2022-11-20T15:30:46;2.57;;;0.70;;
8893;SDS011;4483;48.622;9.230;2022-11-20T15:33:14;0.80;;;0.80;;
8893;SDS011;4483;48.622;9.230;2022-11-20T15:35:41;2.47;;;0.97;;